sensor_id;sensor_type;location;lat;lon;timestamp;P1;durP1;ratioP1;P2;durP2;ratioP2
18114;SDS011;9184;54.390;18.620;2023-03-01T00:00:29;15.00;;;8.03;;
18114;SDS011;9184;54.390;18.620;2023-03-01T00:01:02;17.40;;;7.63;;
18114;SDS011;9184;54.390;18.620;2023-03-01T00:01:33;19.43;;;7.70;;
18114;SDS011;9184;54.390;18.620;2023-03-01T00:02:05;15.73;;;7.73;;
18114;SDS011;9184;54.390;18.620;2023-03-01T00:02:37;14.60;;;8.40;;
18114;SDS011;9184;54.390;18.620;2023-03-01T00:03:08;16.43;;;10.27;;
18114;SDS011;9184;54.390;18.620;2023-03-01T00:03:39;17.73;;;10.57;;
18114;SDS011;9184;54.390;18.620;2023-03-01T00:04:10;19.80;;;11.40;;
18114;SDS011;9184;54.390;18.620;2023-03-01T00:04:41;22.50;;;11.57;;
18114;SDS011;9184;54.390;18.620;2023-03-01T00:05:13;22.47;;;10.03;;
18114;SDS011;9184;54.390;18.620;2023-03-01T00:05:44;17.57;;;10.37;;
18114;SDS011;9184;54.390;18.620;2023-03-01T00:06:14;20.93;;;9.20;;
18114;SDS011;9184;54.390;18.620;2023-03-01T00:06:46;14.03;;;9.57;;
18114;SDS011;9184;54.390;18.620;2023-03-01T00:07:16;16.27;;;9.97;;
18114;SDS011;9184;54.390;18.620;2023-03-01T00:07:47;13.83;;;8.47;;
18114;SDS011;9184;54.390;18.620;2023-03-01T00:08:17;18.20;;;9.83;;
18114;SDS011;9184;54.390;18.620;2023-03-01T00:08:49;17.53;;;8.67;;
18114;SDS011;9184;54.390;18.620;2023-03-01T00:09:19;15.37;;;9.00;;
18114;SDS011;9184;54.390;18.620;2023-03-01T00:09:51;20.20;;;10.50;;
18114;SDS011;9184;54.390;18.620;2023-03-01T00:10:23;14.73;;;8.90;;
18114;SDS011;9184;54.390;18.620;2023-03-01T00:11:00;14.50;;;7.77;;
18114;SDS011;9184;54.390;18.620;2023-03-01T00:11:31;16.20;;;8.70;;
18114;SDS011;9184;54.390;18.620;2023-03-01T00:12:03;18.20;;;8.60;;
18114;SDS011;9184;54.390;18.620;2023-03-01T00:12:33;18.60;;;10.37;;
18114;SDS011;9184;54.390;18.620;2023-03-01T00:13:04;19.20;;;10.30;;
18114;SDS011;9184;54.390;18.620;2023-03-01T00:13:36;19.93;;;10.43;;
18114;SDS011;9184;54.390;18.620;2023-03-01T00:14:07;17.10;;;9.67;;
18114;SDS011;9184;54.390;18.620;2023-03-01T00:14:37;14.83;;;10.10;;
18114;SDS011;9184;54.390;18.620;2023-03-01T00:15:09;20.40;;;9.53;;
18114;SDS011;9184;54.390;18.620;2023-03-01T00:15:39;11.53;;;8.33;;
18114;SDS011;9184;54.390;18.620;2023-03-01T00:16:12;19.77;;;10.10;;
18114;SDS011;9184;54.390;18.620;2023-03-01T00:16:44;18.77;;;8.80;;
18114;SDS011;9184;54.390;18.620;2023-03-01T00:17:15;22.30;;;9.53;;
18114;SDS011;9184;54.390;18.620;2023-03-01T00:17:47;14.77;;;7.73;;
18114;SDS011;9184;54.390;18.620;2023-03-01T00:18:17;15.50;;;7.73;;
18114;SDS011;9184;54.390;18.620;2023-03-01T00:18:48;16.90;;;8.43;;
18114;SDS011;9184;54.390;18.620;2023-03-01T00:19:19;17.13;;;8.77;;
18114;SDS011;9184;54.390;18.620;2023-03-01T00:19:50;13.47;;;8.17;;
18114;SDS011;9184;54.390;18.620;2023-03-01T00:20:20;13.10;;;8.50;;
18114;SDS011;9184;54.390;18.620;2023-03-01T00:20:52;22.30;;;11.10;;
18114;SDS011;9184;54.390;18.620;2023-03-01T00:21:23;16.07;;;8.57;;
18114;SDS011;9184;54.390;18.620;2023-03-01T00:21:53;14.97;;;8.43;;
18114;SDS011;9184;54.390;18.620;2023-03-01T00:22:26;16.90;;;8.83;;
18114;SDS011;9184;54.390;18.620;2023-03-01T00:22:59;18.37;;;8.53;;
18114;SDS011;9184;54.390;18.620;2023-03-01T00:23:29;19.53;;;9.40;;
18114;SDS011;9184;54.390;18.620;2023-03-01T00:24:00;14.73;;;8.50;;
18114;SDS011;9184;54.390;18.620;2023-03-01T00:24:31;17.93;;;9.43;;
18114;SDS011;9184;54.390;18.620;2023-03-01T00:25:03;16.23;;;8.77;;
18114;SDS011;9184;54.390;18.620;2023-03-01T00:25:40;14.57;;;8.43;;
18114;SDS011;9184;54.390;18.620;2023-03-01T00:26:12;12.80;;;8.73;;
18114;SDS011;9184;54.390;18.620;2023-03-01T00:26:43;18.33;;;8.13;;
18114;SDS011;9184;54.390;18.620;2023-03-01T00:27:13;14.73;;;8.20;;
18114;SDS011;9184;54.390;18.620;2023-03-01T00:27:46;14.97;;;8.93;;
18114;SDS011;9184;54.390;18.620;2023-03-01T00:28:17;19.37;;;9.43;;
18114;SDS011;9184;54.390;18.620;2023-03-01T00:28:47;19.93;;;9.00;;
18114;SDS011;9184;54.390;18.620;2023-03-01T00:29:18;20.87;;;9.50;;
18114;SDS011;9184;54.390;18.620;2023-03-01T00:29:49;21.60;;;8.57;;
18114;SDS011;9184;54.390;18.620;2023-03-01T00:30:20;18.63;;;10.03;;
18114;SDS011;9184;54.390;18.620;2023-03-01T00:30:50;17.90;;;8.80;;
18114;SDS011;9184;54.390;18.620;2023-03-01T00:31:21;16.77;;;9.10;;
18114;SDS011;9184;54.390;18.620;2023-03-01T00:31:53;18.67;;;9.70;;
18114;SDS011;9184;54.390;18.620;2023-03-01T00:32:24;17.93;;;9.37;;
18114;SDS011;9184;54.390;18.620;2023-03-01T00:32:54;17.97;;;9.47;;
18114;SDS011;9184;54.390;18.620;2023-03-01T00:33:26;21.17;;;9.83;;
18114;SDS011;9184;54.390;18.620;2023-03-01T00:33:57;18.67;;;9.37;;
18114;SDS011;9184;54.390;18.620;2023-03-01T00:34:27;21.57;;;11.20;;
18114;SDS011;9184;54.390;18.620;2023-03-01T00:34:59;20.63;;;11.43;;
18114;SDS011;9184;54.390;18.620;2023-03-01T00:35:29;25.57;;;11.47;;
18114;SDS011;9184;54.390;18.620;2023-03-01T00:36:02;23.00;;;12.20;;
18114;SDS011;9184;54.390;18.620;2023-03-01T00:36:35;23.80;;;12.10;;
18114;SDS011;9184;54.390;18.620;2023-03-01T00:37:05;25.77;;;12.03;;
18114;SDS011;9184;54.390;18.620;2023-03-01T00:37:37;20.90;;;11.80;;
18114;SDS011;9184;54.390;18.620;2023-03-01T00:38:07;21.73;;;12.33;;
18114;SDS011;9184;54.390;18.620;2023-03-01T00:38:38;18.73;;;11.37;;
18114;SDS011;9184;54.390;18.620;2023-03-01T00:39:10;18.30;;;11.07;;
18114;SDS011;9184;54.390;18.620;2023-03-01T00:39:42;18.80;;;10.60;;
18114;SDS011;9184;54.390;18.620;2023-03-01T00:40:14;18.03;;;11.23;;
18114;SDS011;9184;54.390;18.620;2023-03-01T00:40:46;20.37;;;10.90;;
18114;SDS011;9184;54.390;18.620;2023-03-01T00:41:18;18.87;;;11.20;;
18114;SDS011;9184;54.390;18.620;2023-03-01T00:41:49;18.50;;;9.90;;
18114;SDS011;9184;54.390;18.620;2023-03-01T00:42:19;17.07;;;9.80;;
18114;SDS011;9184;54.390;18.620;2023-03-01T00:42:52;18.00;;;9.53;;
18114;SDS011;9184;54.390;18.620;2023-03-01T00:43:23;16.23;;;10.47;;
18114;SDS011;9184;54.390;18.620;2023-03-01T00:43:54;20.50;;;8.93;;
18114;SDS011;9184;54.390;18.620;2023-03-01T00:44:26;16.40;;;9.27;;
18114;SDS011;9184;54.390;18.620;2023-03-01T00:44:58;16.97;;;8.57;;
18114;SDS011;9184;54.390;18.620;2023-03-01T00:45:28;16.33;;;9.27;;
18114;SDS011;9184;54.390;18.620;2023-03-01T00:46:01;15.47;;;8.97;;
18114;SDS011;9184;54.390;18.620;2023-03-01T00:46:31;19.83;;;8.97;;
18114;SDS011;9184;54.390;18.620;2023-03-01T00:47:02;17.20;;;8.97;;
18114;SDS011;9184;54.390;18.620;2023-03-01T00:47:33;15.43;;;8.60;;
18114;SDS011;9184;54.390;18.620;2023-03-01T00:48:04;19.40;;;8.90;;
18114;SDS011;9184;54.390;18.620;2023-03-01T00:48:35;17.53;;;9.10;;
18114;SDS011;9184;54.390;18.620;2023-03-01T00:49:06;13.60;;;8.27;;
18114;SDS011;9184;54.390;18.620;2023-03-01T00:49:37;15.20;;;9.07;;
18114;SDS011;9184;54.390;18.620;2023-03-01T00:50:08;15.67;;;9.00;;
18114;SDS011;9184;54.390;18.620;2023-03-01T00:50:39;14.23;;;9.10;;
18114;SDS011;9184;54.390;18.620;2023-03-01T00:51:11;22.33;;;9.80;;
18114;SDS011;9184;54.390;18.620;2023-03-01T00:51:42;16.20;;;9.40;;
18114;SDS011;9184;54.390;18.620;2023-03-01T00:52:13;16.97;;;8.33;;
18114;SDS011;9184;54.390;18.620;2023-03-01T00:52:44;15.67;;;9.10;;
18114;SDS011;9184;54.390;18.620;2023-03-01T00:53:15;16.47;;;8.93;;
18114;SDS011;9184;54.390;18.620;2023-03-01T00:53:45;17.40;;;10.13;;
18114;SDS011;9184;54.390;18.620;2023-03-01T00:54:17;19.03;;;10.50;;
18114;SDS011;9184;54.390;18.620;2023-03-01T00:54:48;23.00;;;9.30;;
18114;SDS011;9184;54.390;18.620;2023-03-01T00:55:19;16.60;;;9.10;;
18114;SDS011;9184;54.390;18.620;2023-03-01T00:55:51;19.40;;;9.83;;
18114;SDS011;9184;54.390;18.620;2023-03-01T00:56:22;23.40;;;10.37;;
18114;SDS011;9184;54.390;18.620;2023-03-01T00:56:52;18.70;;;9.47;;
18114;SDS011;9184;54.390;18.620;2023-03-01T00:57:24;20.30;;;9.83;;
18114;SDS011;9184;54.390;18.620;2023-03-01T00:57:54;19.87;;;10.30;;
18114;SDS011;9184;54.390;18.620;2023-03-01T00:58:24;21.20;;;10.40;;
18114;SDS011;9184;54.390;18.620;2023-03-01T00:58:55;17.00;;;10.27;;
18114;SDS011;9184;54.390;18.620;2023-03-01T00:59:27;20.97;;;10.07;;
18114;SDS011;9184;54.390;18.620;2023-03-01T00:59:57;16.43;;;9.40;;
18114;SDS011;9184;54.390;18.620;2023-03-01T01:00:28;18.07;;;10.57;;
18114;SDS011;9184;54.390;18.620;2023-03-01T01:01:00;20.37;;;10.80;;
18114;SDS011;9184;54.390;18.620;2023-03-01T01:01:31;17.80;;;10.10;;
18114;SDS011;9184;54.390;18.620;2023-03-01T01:02:01;18.50;;;11.30;;
18114;SDS011;9184;54.390;18.620;2023-03-01T01:02:33;16.80;;;10.63;;
18114;SDS011;9184;54.390;18.620;2023-03-01T01:03:03;19.40;;;11.50;;
18114;SDS011;9184;54.390;18.620;2023-03-01T01:03:34;19.80;;;10.20;;
18114;SDS011;9184;54.390;18.620;2023-03-01T01:04:06;24.70;;;11.37;;
18114;SDS011;9184;54.390;18.620;2023-03-01T01:04:37;18.80;;;9.97;;
18114;SDS011;9184;54.390;18.620;2023-03-01T01:05:08;17.60;;;9.73;;
18114;SDS011;9184;54.390;18.620;2023-03-01T01:05:39;21.90;;;10.50;;
18114;SDS011;9184;54.390;18.620;2023-03-01T01:06:13;20.80;;;11.17;;
18114;SDS011;9184;54.390;18.620;2023-03-01T01:06:44;16.70;;;10.13;;
18114;SDS011;9184;54.390;18.620;2023-03-01T01:07:14;18.27;;;9.97;;
18114;SDS011;9184;54.390;18.620;2023-03-01T01:07:46;13.37;;;9.00;;
18114;SDS011;9184;54.390;18.620;2023-03-01T01:08:17;20.60;;;9.57;;
18114;SDS011;9184;54.390;18.620;2023-03-01T01:08:48;20.90;;;10.77;;
18114;SDS011;9184;54.390;18.620;2023-03-01T01:09:21;20.10;;;9.03;;
18114;SDS011;9184;54.390;18.620;2023-03-01T01:09:51;19.60;;;8.63;;
18114;SDS011;9184;54.390;18.620;2023-03-01T01:10:23;16.90;;;8.97;;
18114;SDS011;9184;54.390;18.620;2023-03-01T01:10:54;13.97;;;9.03;;
18114;SDS011;9184;54.390;18.620;2023-03-01T01:11:26;19.03;;;9.67;;
18114;SDS011;9184;54.390;18.620;2023-03-01T01:11:56;17.73;;;8.83;;
18114;SDS011;9184;54.390;18.620;2023-03-01T01:12:28;21.43;;;10.40;;
18114;SDS011;9184;54.390;18.620;2023-03-01T01:12:59;20.93;;;10.17;;
18114;SDS011;9184;54.390;18.620;2023-03-01T01:13:29;18.77;;;9.23;;
18114;SDS011;9184;54.390;18.620;2023-03-01T01:14:00;20.87;;;9.17;;
18114;SDS011;9184;54.390;18.620;2023-03-01T01:14:31;17.27;;;9.13;;
18114;SDS011;9184;54.390;18.620;2023-03-01T01:15:02;24.03;;;10.07;;
18114;SDS011;9184;54.390;18.620;2023-03-01T01:15:33;19.10;;;9.30;;
18114;SDS011;9184;54.390;18.620;2023-03-01T01:16:04;19.27;;;9.37;;
18114;SDS011;9184;54.390;18.620;2023-03-01T01:16:35;18.80;;;9.30;;
18114;SDS011;9184;54.390;18.620;2023-03-01T01:17:06;16.70;;;9.20;;
18114;SDS011;9184;54.390;18.620;2023-03-01T01:17:36;17.53;;;9.10;;
18114;SDS011;9184;54.390;18.620;2023-03-01T01:18:08;17.33;;;9.97;;
18114;SDS011;9184;54.390;18.620;2023-03-01T01:18:38;17.77;;;9.17;;
18114;SDS011;9184;54.390;18.620;2023-03-01T01:19:09;17.63;;;9.57;;
18114;SDS011;9184;54.390;18.620;2023-03-01T01:19:41;21.23;;;9.87;;
18114;SDS011;9184;54.390;18.620;2023-03-01T01:20:12;16.80;;;9.23;;
18114;SDS011;9184;54.390;18.620;2023-03-01T01:20:42;20.90;;;9.00;;
18114;SDS011;9184;54.390;18.620;2023-03-01T01:21:15;19.97;;;10.03;;
18114;SDS011;9184;54.390;18.620;2023-03-01T01:21:45;19.53;;;9.27;;
18114;SDS011;9184;54.390;18.620;2023-03-01T01:22:18;19.17;;;9.90;;
18114;SDS011;9184;54.390;18.620;2023-03-01T01:22:48;16.77;;;9.00;;
18114;SDS011;9184;54.390;18.620;2023-03-01T01:23:19;20.43;;;9.13;;
18114;SDS011;9184;54.390;18.620;2023-03-01T01:23:50;16.43;;;10.20;;
18114;SDS011;9184;54.390;18.620;2023-03-01T01:24:21;22.67;;;10.03;;
18114;SDS011;9184;54.390;18.620;2023-03-01T01:24:52;20.17;;;10.13;;
18114;SDS011;9184;54.390;18.620;2023-03-01T01:25:24;18.40;;;9.63;;
18114;SDS011;9184;54.390;18.620;2023-03-01T01:25:55;17.50;;;9.60;;
18114;SDS011;9184;54.390;18.620;2023-03-01T01:26:27;14.73;;;9.00;;
18114;SDS011;9184;54.390;18.620;2023-03-01T01:26:58;21.27;;;10.07;;
18114;SDS011;9184;54.390;18.620;2023-03-01T01:27:29;21.10;;;11.60;;
18114;SDS011;9184;54.390;18.620;2023-03-01T01:28:00;18.67;;;10.07;;
18114;SDS011;9184;54.390;18.620;2023-03-01T01:28:31;16.90;;;9.60;;
18114;SDS011;9184;54.390;18.620;2023-03-01T01:29:02;21.83;;;10.30;;
18114;SDS011;9184;54.390;18.620;2023-03-01T01:29:37;26.43;;;10.83;;
18114;SDS011;9184;54.390;18.620;2023-03-01T01:30:08;18.17;;;10.20;;
18114;SDS011;9184;54.390;18.620;2023-03-01T01:30:38;21.73;;;10.83;;
18114;SDS011;9184;54.390;18.620;2023-03-01T01:31:10;15.50;;;9.67;;
18114;SDS011;9184;54.390;18.620;2023-03-01T01:31:41;22.57;;;10.97;;
18114;SDS011;9184;54.390;18.620;2023-03-01T01:32:12;14.47;;;10.00;;
18114;SDS011;9184;54.390;18.620;2023-03-01T01:32:43;16.90;;;9.80;;
18114;SDS011;9184;54.390;18.620;2023-03-01T01:33:14;21.80;;;9.90;;
18114;SDS011;9184;54.390;18.620;2023-03-01T01:33:44;18.87;;;10.13;;
18114;SDS011;9184;54.390;18.620;2023-03-01T01:34:15;19.50;;;9.40;;
18114;SDS011;9184;54.390;18.620;2023-03-01T01:34:47;17.47;;;9.57;;
18114;SDS011;9184;54.390;18.620;2023-03-01T01:35:17;20.63;;;10.70;;
18114;SDS011;9184;54.390;18.620;2023-03-01T01:35:48;17.30;;;9.60;;
18114;SDS011;9184;54.390;18.620;2023-03-01T01:36:19;16.33;;;9.40;;
18114;SDS011;9184;54.390;18.620;2023-03-01T01:36:50;22.97;;;10.47;;
18114;SDS011;9184;54.390;18.620;2023-03-01T01:37:23;17.50;;;9.30;;
18114;SDS011;9184;54.390;18.620;2023-03-01T01:38:01;18.10;;;10.30;;
18114;SDS011;9184;54.390;18.620;2023-03-01T01:38:32;21.03;;;9.87;;
18114;SDS011;9184;54.390;18.620;2023-03-01T01:39:03;21.47;;;10.23;;
18114;SDS011;9184;54.390;18.620;2023-03-01T01:39:34;20.93;;;10.03;;
18114;SDS011;9184;54.390;18.620;2023-03-01T01:40:05;16.30;;;9.90;;
18114;SDS011;9184;54.390;18.620;2023-03-01T01:40:43;22.57;;;10.47;;
18114;SDS011;9184;54.390;18.620;2023-03-01T01:41:14;21.17;;;11.50;;
18114;SDS011;9184;54.390;18.620;2023-03-01T01:41:46;19.57;;;9.97;;
18114;SDS011;9184;54.390;18.620;2023-03-01T01:42:16;23.60;;;10.33;;
18114;SDS011;9184;54.390;18.620;2023-03-01T01:42:47;19.87;;;10.40;;
18114;SDS011;9184;54.390;18.620;2023-03-01T01:43:20;18.53;;;9.47;;
18114;SDS011;9184;54.390;18.620;2023-03-01T01:44:37;17.43;;;9.83;;
18114;SDS011;9184;54.390;18.620;2023-03-01T01:46:03;20.03;;;9.53;;
18114;SDS011;9184;54.390;18.620;2023-03-01T01:46:35;23.20;;;10.23;;
18114;SDS011;9184;54.390;18.620;2023-03-01T01:47:09;20.90;;;9.93;;
18114;SDS011;9184;54.390;18.620;2023-03-01T01:47:42;15.13;;;8.80;;
18114;SDS011;9184;54.390;18.620;2023-03-01T01:48:19;21.63;;;10.97;;
18114;SDS011;9184;54.390;18.620;2023-03-01T01:48:52;20.60;;;10.17;;
18114;SDS011;9184;54.390;18.620;2023-03-01T01:49:28;17.80;;;10.50;;
18114;SDS011;9184;54.390;18.620;2023-03-01T01:50:02;18.47;;;10.80;;
18114;SDS011;9184;54.390;18.620;2023-03-01T01:50:33;21.67;;;10.63;;
18114;SDS011;9184;54.390;18.620;2023-03-01T01:51:09;22.90;;;10.53;;
18114;SDS011;9184;54.390;18.620;2023-03-01T01:51:42;19.20;;;9.67;;
18114;SDS011;9184;54.390;18.620;2023-03-01T01:52:16;20.27;;;9.43;;
18114;SDS011;9184;54.390;18.620;2023-03-01T01:52:47;19.20;;;11.30;;
18114;SDS011;9184;54.390;18.620;2023-03-01T01:53:20;24.83;;;10.77;;
18114;SDS011;9184;54.390;18.620;2023-03-01T01:53:51;20.60;;;11.03;;
18114;SDS011;9184;54.390;18.620;2023-03-01T01:54:25;26.97;;;10.33;;
18114;SDS011;9184;54.390;18.620;2023-03-01T01:54:58;22.77;;;10.57;;
18114;SDS011;9184;54.390;18.620;2023-03-01T01:55:30;19.43;;;10.77;;
18114;SDS011;9184;54.390;18.620;2023-03-01T01:56:02;19.07;;;10.87;;
18114;SDS011;9184;54.390;18.620;2023-03-01T01:56:34;18.70;;;10.63;;
18114;SDS011;9184;54.390;18.620;2023-03-01T01:57:09;19.43;;;11.27;;
18114;SDS011;9184;54.390;18.620;2023-03-01T01:57:41;20.03;;;10.57;;
18114;SDS011;9184;54.390;18.620;2023-03-01T01:58:16;24.77;;;11.70;;
18114;SDS011;9184;54.390;18.620;2023-03-01T01:58:47;23.57;;;12.07;;
18114;SDS011;9184;54.390;18.620;2023-03-01T01:59:18;17.67;;;10.57;;
18114;SDS011;9184;54.390;18.620;2023-03-01T01:59:54;19.50;;;11.13;;
18114;SDS011;9184;54.390;18.620;2023-03-01T02:00:27;23.40;;;11.70;;
18114;SDS011;9184;54.390;18.620;2023-03-01T02:00:57;21.40;;;11.70;;
18114;SDS011;9184;54.390;18.620;2023-03-01T02:01:31;20.10;;;11.17;;
18114;SDS011;9184;54.390;18.620;2023-03-01T02:02:02;26.27;;;12.00;;
18114;SDS011;9184;54.390;18.620;2023-03-01T02:02:33;25.83;;;11.93;;
18114;SDS011;9184;54.390;18.620;2023-03-01T02:03:04;20.30;;;10.77;;
18114;SDS011;9184;54.390;18.620;2023-03-01T02:03:37;20.73;;;10.73;;
18114;SDS011;9184;54.390;18.620;2023-03-01T02:04:12;25.70;;;12.30;;
18114;SDS011;9184;54.390;18.620;2023-03-01T02:04:42;28.40;;;12.60;;
18114;SDS011;9184;54.390;18.620;2023-03-01T02:05:15;23.93;;;11.90;;
18114;SDS011;9184;54.390;18.620;2023-03-01T02:05:49;21.53;;;10.73;;
18114;SDS011;9184;54.390;18.620;2023-03-01T02:06:25;17.10;;;11.70;;
18114;SDS011;9184;54.390;18.620;2023-03-01T02:07:00;22.23;;;11.87;;
18114;SDS011;9184;54.390;18.620;2023-03-01T02:07:32;22.33;;;12.33;;
18114;SDS011;9184;54.390;18.620;2023-03-01T02:08:02;23.67;;;12.73;;
18114;SDS011;9184;54.390;18.620;2023-03-01T02:08:35;23.77;;;12.77;;
18114;SDS011;9184;54.390;18.620;2023-03-01T02:09:07;24.67;;;12.27;;
18114;SDS011;9184;54.390;18.620;2023-03-01T02:09:41;20.40;;;11.87;;
18114;SDS011;9184;54.390;18.620;2023-03-01T02:10:13;23.87;;;12.50;;
18114;SDS011;9184;54.390;18.620;2023-03-01T02:10:44;18.73;;;11.63;;
18114;SDS011;9184;54.390;18.620;2023-03-01T02:11:16;20.93;;;12.07;;
18114;SDS011;9184;54.390;18.620;2023-03-01T02:11:48;27.43;;;13.67;;
18114;SDS011;9184;54.390;18.620;2023-03-01T02:12:20;21.80;;;13.13;;
18114;SDS011;9184;54.390;18.620;2023-03-01T02:12:51;24.03;;;12.57;;
18114;SDS011;9184;54.390;18.620;2023-03-01T02:13:23;24.00;;;13.17;;
18114;SDS011;9184;54.390;18.620;2023-03-01T02:13:53;22.03;;;11.97;;
18114;SDS011;9184;54.390;18.620;2023-03-01T02:14:24;23.07;;;12.80;;
18114;SDS011;9184;54.390;18.620;2023-03-01T02:14:56;24.27;;;13.60;;
18114;SDS011;9184;54.390;18.620;2023-03-01T02:15:26;26.10;;;14.13;;
18114;SDS011;9184;54.390;18.620;2023-03-01T02:16:02;31.60;;;13.97;;
18114;SDS011;9184;54.390;18.620;2023-03-01T02:16:34;26.37;;;13.20;;
18114;SDS011;9184;54.390;18.620;2023-03-01T02:17:05;27.07;;;14.03;;
18114;SDS011;9184;54.390;18.620;2023-03-01T02:17:35;24.13;;;13.90;;
18114;SDS011;9184;54.390;18.620;2023-03-01T02:18:07;30.47;;;13.67;;
18114;SDS011;9184;54.390;18.620;2023-03-01T02:18:38;24.30;;;13.07;;
18114;SDS011;9184;54.390;18.620;2023-03-01T02:19:09;26.00;;;13.60;;
18114;SDS011;9184;54.390;18.620;2023-03-01T02:19:47;26.90;;;14.17;;
18114;SDS011;9184;54.390;18.620;2023-03-01T02:20:22;26.03;;;14.53;;
18114;SDS011;9184;54.390;18.620;2023-03-01T02:21:04;28.37;;;14.10;;
18114;SDS011;9184;54.390;18.620;2023-03-01T02:21:38;29.90;;;13.97;;
18114;SDS011;9184;54.390;18.620;2023-03-01T02:22:14;25.10;;;13.10;;
18114;SDS011;9184;54.390;18.620;2023-03-01T02:22:45;30.47;;;14.47;;
18114;SDS011;9184;54.390;18.620;2023-03-01T02:23:16;22.73;;;14.30;;
18114;SDS011;9184;54.390;18.620;2023-03-01T02:23:50;29.13;;;14.93;;
18114;SDS011;9184;54.390;18.620;2023-03-01T02:24:21;24.70;;;15.03;;
18114;SDS011;9184;54.390;18.620;2023-03-01T02:24:59;24.40;;;13.50;;
18114;SDS011;9184;54.390;18.620;2023-03-01T02:25:34;29.27;;;15.50;;
18114;SDS011;9184;54.390;18.620;2023-03-01T02:26:06;25.77;;;14.70;;
18114;SDS011;9184;54.390;18.620;2023-03-01T02:26:40;26.13;;;15.73;;
18114;SDS011;9184;54.390;18.620;2023-03-01T02:27:12;29.27;;;15.43;;
18114;SDS011;9184;54.390;18.620;2023-03-01T02:27:45;33.37;;;15.80;;
18114;SDS011;9184;54.390;18.620;2023-03-01T02:28:24;30.67;;;16.40;;
18114;SDS011;9184;54.390;18.620;2023-03-01T02:28:56;29.23;;;15.87;;
18114;SDS011;9184;54.390;18.620;2023-03-01T02:29:27;27.20;;;15.00;;
18114;SDS011;9184;54.390;18.620;2023-03-01T02:29:58;31.67;;;15.37;;
18114;SDS011;9184;54.390;18.620;2023-03-01T02:30:29;30.53;;;16.30;;
18114;SDS011;9184;54.390;18.620;2023-03-01T02:31:01;34.33;;;16.10;;
18114;SDS011;9184;54.390;18.620;2023-03-01T02:31:51;23.73;;;14.57;;
18114;SDS011;9184;54.390;18.620;2023-03-01T02:32:23;28.03;;;15.73;;
18114;SDS011;9184;54.390;18.620;2023-03-01T02:32:55;31.93;;;15.30;;
18114;SDS011;9184;54.390;18.620;2023-03-01T02:33:33;27.77;;;15.60;;
18114;SDS011;9184;54.390;18.620;2023-03-01T02:34:06;29.30;;;16.40;;
18114;SDS011;9184;54.390;18.620;2023-03-01T02:34:37;32.77;;;16.07;;
18114;SDS011;9184;54.390;18.620;2023-03-01T02:35:09;38.83;;;17.60;;
18114;SDS011;9184;54.390;18.620;2023-03-01T02:35:42;26.27;;;16.00;;
18114;SDS011;9184;54.390;18.620;2023-03-01T02:36:14;30.57;;;16.57;;
18114;SDS011;9184;54.390;18.620;2023-03-01T02:36:46;31.73;;;16.40;;
18114;SDS011;9184;54.390;18.620;2023-03-01T02:37:17;29.03;;;16.33;;
18114;SDS011;9184;54.390;18.620;2023-03-01T02:37:54;28.40;;;15.87;;
18114;SDS011;9184;54.390;18.620;2023-03-01T02:38:31;27.20;;;16.90;;
18114;SDS011;9184;54.390;18.620;2023-03-01T02:39:02;32.70;;;16.33;;
18114;SDS011;9184;54.390;18.620;2023-03-01T02:39:34;25.20;;;15.73;;
18114;SDS011;9184;54.390;18.620;2023-03-01T02:40:13;29.93;;;16.63;;
18114;SDS011;9184;54.390;18.620;2023-03-01T02:40:45;33.27;;;17.77;;
18114;SDS011;9184;54.390;18.620;2023-03-01T02:41:16;31.47;;;16.73;;
18114;SDS011;9184;54.390;18.620;2023-03-01T02:41:48;29.10;;;15.97;;
18114;SDS011;9184;54.390;18.620;2023-03-01T02:42:22;30.43;;;15.90;;
18114;SDS011;9184;54.390;18.620;2023-03-01T02:42:54;32.67;;;16.90;;
18114;SDS011;9184;54.390;18.620;2023-03-01T02:43:27;31.33;;;17.50;;
18114;SDS011;9184;54.390;18.620;2023-03-01T02:44:00;30.87;;;17.43;;
18114;SDS011;9184;54.390;18.620;2023-03-01T02:44:30;34.87;;;17.50;;
18114;SDS011;9184;54.390;18.620;2023-03-01T02:45:01;26.43;;;17.33;;
18114;SDS011;9184;54.390;18.620;2023-03-01T02:45:32;35.23;;;18.07;;
18114;SDS011;9184;54.390;18.620;2023-03-01T02:46:06;32.83;;;17.13;;
18114;SDS011;9184;54.390;18.620;2023-03-01T02:46:41;31.53;;;16.97;;
18114;SDS011;9184;54.390;18.620;2023-03-01T02:47:13;31.77;;;17.13;;
18114;SDS011;9184;54.390;18.620;2023-03-01T02:47:43;35.57;;;16.97;;
18114;SDS011;9184;54.390;18.620;2023-03-01T02:48:14;36.27;;;18.53;;
18114;SDS011;9184;54.390;18.620;2023-03-01T02:48:46;34.23;;;17.13;;
18114;SDS011;9184;54.390;18.620;2023-03-01T02:49:24;30.50;;;18.37;;
18114;SDS011;9184;54.390;18.620;2023-03-01T02:49:55;29.47;;;16.60;;
18114;SDS011;9184;54.390;18.620;2023-03-01T02:50:34;32.67;;;17.73;;
18114;SDS011;9184;54.390;18.620;2023-03-01T02:51:11;31.37;;;17.17;;
18114;SDS011;9184;54.390;18.620;2023-03-01T02:51:45;35.17;;;17.57;;
18114;SDS011;9184;54.390;18.620;2023-03-01T02:52:23;31.23;;;18.40;;
18114;SDS011;9184;54.390;18.620;2023-03-01T02:53:00;33.53;;;17.70;;
18114;SDS011;9184;54.390;18.620;2023-03-01T02:53:33;31.10;;;18.33;;
18114;SDS011;9184;54.390;18.620;2023-03-01T02:54:10;34.40;;;19.17;;
18114;SDS011;9184;54.390;18.620;2023-03-01T02:54:46;29.57;;;18.43;;
18114;SDS011;9184;54.390;18.620;2023-03-01T02:55:17;34.60;;;18.57;;
18114;SDS011;9184;54.390;18.620;2023-03-01T02:55:48;30.23;;;18.20;;
18114;SDS011;9184;54.390;18.620;2023-03-01T02:56:19;37.00;;;19.57;;
18114;SDS011;9184;54.390;18.620;2023-03-01T02:56:50;33.97;;;18.53;;
18114;SDS011;9184;54.390;18.620;2023-03-01T02:57:21;33.03;;;19.10;;
18114;SDS011;9184;54.390;18.620;2023-03-01T02:57:52;35.00;;;18.67;;
18114;SDS011;9184;54.390;18.620;2023-03-01T02:58:23;36.77;;;19.87;;
18114;SDS011;9184;54.390;18.620;2023-03-01T02:58:55;31.70;;;18.57;;
18114;SDS011;9184;54.390;18.620;2023-03-01T02:59:31;31.90;;;17.70;;
18114;SDS011;9184;54.390;18.620;2023-03-01T03:00:05;35.63;;;18.47;;
18114;SDS011;9184;54.390;18.620;2023-03-01T03:00:37;37.57;;;18.70;;
18114;SDS011;9184;54.390;18.620;2023-03-01T03:01:10;33.03;;;17.87;;
18114;SDS011;9184;54.390;18.620;2023-03-01T03:01:41;35.00;;;18.57;;
18114;SDS011;9184;54.390;18.620;2023-03-01T03:02:18;31.87;;;18.73;;
18114;SDS011;9184;54.390;18.620;2023-03-01T03:02:51;32.53;;;18.70;;
18114;SDS011;9184;54.390;18.620;2023-03-01T03:03:23;39.33;;;20.20;;
18114;SDS011;9184;54.390;18.620;2023-03-01T03:03:53;32.70;;;19.27;;
18114;SDS011;9184;54.390;18.620;2023-03-01T03:04:24;35.77;;;20.07;;
18114;SDS011;9184;54.390;18.620;2023-03-01T03:04:54;35.97;;;19.53;;
18114;SDS011;9184;54.390;18.620;2023-03-01T03:05:26;36.53;;;18.90;;
18114;SDS011;9184;54.390;18.620;2023-03-01T03:05:57;35.77;;;19.80;;
18114;SDS011;9184;54.390;18.620;2023-03-01T03:06:27;33.47;;;18.07;;
18114;SDS011;9184;54.390;18.620;2023-03-01T03:06:59;37.03;;;19.77;;
18114;SDS011;9184;54.390;18.620;2023-03-01T03:07:30;37.50;;;19.63;;
18114;SDS011;9184;54.390;18.620;2023-03-01T03:08:01;38.20;;;21.77;;
18114;SDS011;9184;54.390;18.620;2023-03-01T03:08:32;34.10;;;19.50;;
18114;SDS011;9184;54.390;18.620;2023-03-01T03:09:04;36.40;;;20.77;;
18114;SDS011;9184;54.390;18.620;2023-03-01T03:09:35;36.33;;;19.40;;
18114;SDS011;9184;54.390;18.620;2023-03-01T03:10:06;37.17;;;19.87;;